Terminal Aerodrome Forecast
Issued by NWS

Home | Current Version | Previous Version | Text Only | Print | Product List | Glossary On
Versions: 1 2 3 4 5 6 7 8 9 10 11 12 13 14 15 16 17 18 19
000
FTUS46 KSEW 282054 AAA
TAFBFI
TAF AMD
KBFI 282054Z 2821/2918 22007KT P6SM BKN020 OVC040
     FM282200 22005KT P6SM SCT040
     FM290000 31005KT P6SM SKC
     FM290600 VRB03KT P6SM SKC
     FM291300 VRB03KT P6SM BKN015=

USA.gov is the U.S. government's official web portal to all federal, state and local government web resources and services.